sensor_id;sensor_type;location;lat;lon;timestamp;temperature;humidity
19348;DHT22;9810;52.480;9.806;2022-10-16T00:01:18;12.40;99.90
19348;DHT22;9810;52.480;9.806;2022-10-16T00:03:46;12.30;99.90
19348;DHT22;9810;52.480;9.806;2022-10-16T00:06:14;12.40;99.90
19348;DHT22;9810;52.480;9.806;2022-10-16T00:08:42;12.60;99.90
19348;DHT22;9810;52.480;9.806;2022-10-16T00:11:14;12.70;99.90
19348;DHT22;9810;52.480;9.806;2022-10-16T00:13:43;12.70;99.90
19348;DHT22;9810;52.480;9.806;2022-10-16T00:16:12;12.70;99.90
19348;DHT22;9810;52.480;9.806;2022-10-16T00:18:40;12.80;99.90
19348;DHT22;9810;52.480;9.806;2022-10-16T00:21:10;12.90;99.90
19348;DHT22;9810;52.480;9.806;2022-10-16T00:23:38;12.90;99.90
19348;DHT22;9810;52.480;9.806;2022-10-16T00:26:06;12.80;99.90
19348;DHT22;9810;52.480;9.806;2022-10-16T00:28:36;12.80;99.90
19348;DHT22;9810;52.480;9.806;2022-10-16T00:31:04;12.80;99.90
19348;DHT22;9810;52.480;9.806;2022-10-16T00:33:31;12.80;99.90
19348;DHT22;9810;52.480;9.806;2022-10-16T00:35:58;12.90;99.90
19348;DHT22;9810;52.480;9.806;2022-10-16T00:38:25;13.00;99.90
19348;DHT22;9810;52.480;9.806;2022-10-16T00:40:53;13.20;99.90
19348;DHT22;9810;52.480;9.806;2022-10-16T00:43:39;13.20;99.90
19348;DHT22;9810;52.480;9.806;2022-10-16T00:46:13;13.30;99.90
19348;DHT22;9810;52.480;9.806;2022-10-16T00:48:42;13.40;99.90
19348;DHT22;9810;52.480;9.806;2022-10-16T00:51:09;13.50;99.90
19348;DHT22;9810;52.480;9.806;2022-10-16T00:53:36;13.50;99.90
19348;DHT22;9810;52.480;9.806;2022-10-16T00:56:04;13.50;99.90
19348;DHT22;9810;52.480;9.806;2022-10-16T00:58:32;13.60;99.90
19348;DHT22;9810;52.480;9.806;2022-10-16T01:01:01;13.60;99.90
19348;DHT22;9810;52.480;9.806;2022-10-16T01:03:31;13.60;99.90
19348;DHT22;9810;52.480;9.806;2022-10-16T01:06:08;13.60;99.90
19348;DHT22;9810;52.480;9.806;2022-10-16T01:08:47;13.60;99.90
19348;DHT22;9810;52.480;9.806;2022-10-16T01:11:21;13.60;99.90
19348;DHT22;9810;52.480;9.806;2022-10-16T01:13:54;13.60;99.90
19348;DHT22;9810;52.480;9.806;2022-10-16T01:16:30;13.50;99.90
19348;DHT22;9810;52.480;9.806;2022-10-16T01:19:05;13.50;99.90
19348;DHT22;9810;52.480;9.806;2022-10-16T01:21:39;13.60;99.90
19348;DHT22;9810;52.480;9.806;2022-10-16T01:24:15;13.60;99.90
19348;DHT22;9810;52.480;9.806;2022-10-16T01:27:02;13.70;99.90
19348;DHT22;9810;52.480;9.806;2022-10-16T01:29:36;13.70;99.90
19348;DHT22;9810;52.480;9.806;2022-10-16T01:32:11;13.60;99.90
19348;DHT22;9810;52.480;9.806;2022-10-16T01:34:47;13.70;99.90
19348;DHT22;9810;52.480;9.806;2022-10-16T01:37:20;13.60;99.90
19348;DHT22;9810;52.480;9.806;2022-10-16T01:39:50;13.50;99.90
19348;DHT22;9810;52.480;9.806;2022-10-16T01:42:24;13.40;99.90
19348;DHT22;9810;52.480;9.806;2022-10-16T01:44:53;13.30;99.90
19348;DHT22;9810;52.480;9.806;2022-10-16T01:47:24;13.20;99.90
19348;DHT22;9810;52.480;9.806;2022-10-16T01:49:53;13.20;99.90
19348;DHT22;9810;52.480;9.806;2022-10-16T01:52:23;13.20;99.90
19348;DHT22;9810;52.480;9.806;2022-10-16T01:54:54;13.20;99.90
19348;DHT22;9810;52.480;9.806;2022-10-16T01:57:24;13.20;99.90
19348;DHT22;9810;52.480;9.806;2022-10-16T01:59:53;13.20;99.90
19348;DHT22;9810;52.480;9.806;2022-10-16T02:02:22;13.10;99.90
19348;DHT22;9810;52.480;9.806;2022-10-16T02:04:56;13.00;99.90
19348;DHT22;9810;52.480;9.806;2022-10-16T02:07:25;12.90;99.90
19348;DHT22;9810;52.480;9.806;2022-10-16T02:09:52;12.80;99.90
19348;DHT22;9810;52.480;9.806;2022-10-16T02:12:26;12.70;99.90
19348;DHT22;9810;52.480;9.806;2022-10-16T02:14:54;12.50;99.90
19348;DHT22;9810;52.480;9.806;2022-10-16T02:17:21;12.50;99.90
19348;DHT22;9810;52.480;9.806;2022-10-16T02:19:50;12.60;99.90
19348;DHT22;9810;52.480;9.806;2022-10-16T02:22:21;12.60;99.90
19348;DHT22;9810;52.480;9.806;2022-10-16T02:24:54;12.50;99.90
19348;DHT22;9810;52.480;9.806;2022-10-16T02:27:27;12.60;99.90
19348;DHT22;9810;52.480;9.806;2022-10-16T02:30:02;12.50;99.90
19348;DHT22;9810;52.480;9.806;2022-10-16T02:32:35;12.70;99.90
19348;DHT22;9810;52.480;9.806;2022-10-16T02:35:04;12.80;99.90
19348;DHT22;9810;52.480;9.806;2022-10-16T02:37:32;12.90;99.90
19348;DHT22;9810;52.480;9.806;2022-10-16T02:39:59;12.90;99.90
19348;DHT22;9810;52.480;9.806;2022-10-16T02:42:33;12.90;99.90
19348;DHT22;9810;52.480;9.806;2022-10-16T02:45:01;12.90;99.90
19348;DHT22;9810;52.480;9.806;2022-10-16T02:47:29;12.80;99.90
19348;DHT22;9810;52.480;9.806;2022-10-16T02:49:56;12.80;99.90
19348;DHT22;9810;52.480;9.806;2022-10-16T02:52:23;12.80;99.90
19348;DHT22;9810;52.480;9.806;2022-10-16T02:54:50;12.90;99.90
19348;DHT22;9810;52.480;9.806;2022-10-16T02:57:18;12.80;99.90
19348;DHT22;9810;52.480;9.806;2022-10-16T02:59:47;13.00;99.90
19348;DHT22;9810;52.480;9.806;2022-10-16T03:02:14;12.90;99.90
19348;DHT22;9810;52.480;9.806;2022-10-16T03:04:41;13.00;99.90
19348;DHT22;9810;52.480;9.806;2022-10-16T03:07:08;12.90;99.90
19348;DHT22;9810;52.480;9.806;2022-10-16T03:09:35;12.80;99.90
19348;DHT22;9810;52.480;9.806;2022-10-16T03:12:02;12.80;99.90
19348;DHT22;9810;52.480;9.806;2022-10-16T03:14:29;12.80;99.90
19348;DHT22;9810;52.480;9.806;2022-10-16T03:16:58;12.60;99.90
19348;DHT22;9810;52.480;9.806;2022-10-16T03:19:25;12.50;99.90
19348;DHT22;9810;52.480;9.806;2022-10-16T03:21:52;12.40;99.90
19348;DHT22;9810;52.480;9.806;2022-10-16T03:24:19;12.40;99.90
19348;DHT22;9810;52.480;9.806;2022-10-16T03:26:46;12.40;99.90
19348;DHT22;9810;52.480;9.806;2022-10-16T03:29:13;12.50;99.90
19348;DHT22;9810;52.480;9.806;2022-10-16T03:31:40;12.40;99.90
19348;DHT22;9810;52.480;9.806;2022-10-16T03:34:09;12.20;99.90
19348;DHT22;9810;52.480;9.806;2022-10-16T03:36:36;12.10;99.90
19348;DHT22;9810;52.480;9.806;2022-10-16T03:39:03;12.10;99.90
19348;DHT22;9810;52.480;9.806;2022-10-16T03:41:30;12.00;99.90
19348;DHT22;9810;52.480;9.806;2022-10-16T03:43:57;12.10;99.90
19348;DHT22;9810;52.480;9.806;2022-10-16T03:46:24;12.30;99.90
19348;DHT22;9810;52.480;9.806;2022-10-16T03:48:51;12.30;99.90
19348;DHT22;9810;52.480;9.806;2022-10-16T03:51:19;12.10;99.90
19348;DHT22;9810;52.480;9.806;2022-10-16T03:53:46;12.00;99.90
19348;DHT22;9810;52.480;9.806;2022-10-16T03:56:13;11.90;99.90
19348;DHT22;9810;52.480;9.806;2022-10-16T03:58:41;11.70;99.90
19348;DHT22;9810;52.480;9.806;2022-10-16T04:01:08;11.50;99.90
19348;DHT22;9810;52.480;9.806;2022-10-16T04:03:35;11.40;99.90
19348;DHT22;9810;52.480;9.806;2022-10-16T04:06:02;11.30;99.90
19348;DHT22;9810;52.480;9.806;2022-10-16T04:08:31;11.30;99.90
19348;DHT22;9810;52.480;9.806;2022-10-16T04:11:00;11.20;99.90
19348;DHT22;9810;52.480;9.806;2022-10-16T04:13:27;11.20;99.90
19348;DHT22;9810;52.480;9.806;2022-10-16T04:15:54;11.20;99.90
19348;DHT22;9810;52.480;9.806;2022-10-16T04:18:21;11.00;99.90
19348;DHT22;9810;52.480;9.806;2022-10-16T04:20:48;11.10;99.90
19348;DHT22;9810;52.480;9.806;2022-10-16T04:23:15;11.20;99.90
19348;DHT22;9810;52.480;9.806;2022-10-16T04:25:44;11.00;99.90
19348;DHT22;9810;52.480;9.806;2022-10-16T04:28:11;11.00;99.90
19348;DHT22;9810;52.480;9.806;2022-10-16T04:30:39;10.90;99.90
19348;DHT22;9810;52.480;9.806;2022-10-16T04:33:08;10.90;99.90
19348;DHT22;9810;52.480;9.806;2022-10-16T04:35:36;10.80;99.90
19348;DHT22;9810;52.480;9.806;2022-10-16T04:38:03;10.60;99.90
19348;DHT22;9810;52.480;9.806;2022-10-16T04:40:30;10.60;99.90
19348;DHT22;9810;52.480;9.806;2022-10-16T04:42:59;10.80;99.90
19348;DHT22;9810;52.480;9.806;2022-10-16T04:45:27;11.00;99.90
19348;DHT22;9810;52.480;9.806;2022-10-16T04:47:56;11.00;99.90
19348;DHT22;9810;52.480;9.806;2022-10-16T04:50:24;11.10;99.90
19348;DHT22;9810;52.480;9.806;2022-10-16T04:52:51;11.10;99.90
19348;DHT22;9810;52.480;9.806;2022-10-16T04:55:18;11.10;99.90
19348;DHT22;9810;52.480;9.806;2022-10-16T04:57:45;11.20;99.90
19348;DHT22;9810;52.480;9.806;2022-10-16T05:00:14;11.50;99.90
19348;DHT22;9810;52.480;9.806;2022-10-16T05:02:42;11.40;99.90
19348;DHT22;9810;52.480;9.806;2022-10-16T05:05:09;11.60;99.90
19348;DHT22;9810;52.480;9.806;2022-10-16T05:07:37;11.60;99.90
19348;DHT22;9810;52.480;9.806;2022-10-16T05:10:05;11.80;99.90
19348;DHT22;9810;52.480;9.806;2022-10-16T05:12:32;11.90;99.90
19348;DHT22;9810;52.480;9.806;2022-10-16T05:14:59;12.00;99.90
19348;DHT22;9810;52.480;9.806;2022-10-16T05:17:28;12.00;99.90
19348;DHT22;9810;52.480;9.806;2022-10-16T05:19:56;12.00;99.90
19348;DHT22;9810;52.480;9.806;2022-10-16T05:22:23;12.00;99.90
19348;DHT22;9810;52.480;9.806;2022-10-16T05:24:50;12.10;99.90
19348;DHT22;9810;52.480;9.806;2022-10-16T05:27:17;12.10;99.90
19348;DHT22;9810;52.480;9.806;2022-10-16T05:29:46;12.20;99.90
19348;DHT22;9810;52.480;9.806;2022-10-16T05:32:14;12.30;99.90
19348;DHT22;9810;52.480;9.806;2022-10-16T05:34:43;12.20;99.90
19348;DHT22;9810;52.480;9.806;2022-10-16T05:37:11;12.20;99.90
19348;DHT22;9810;52.480;9.806;2022-10-16T05:39:38;12.20;99.90
19348;DHT22;9810;52.480;9.806;2022-10-16T05:42:06;12.30;99.90
19348;DHT22;9810;52.480;9.806;2022-10-16T05:44:33;12.30;99.90
19348;DHT22;9810;52.480;9.806;2022-10-16T05:47:00;12.30;99.90
19348;DHT22;9810;52.480;9.806;2022-10-16T05:49:27;12.30;99.90
19348;DHT22;9810;52.480;9.806;2022-10-16T05:51:56;12.30;99.90
19348;DHT22;9810;52.480;9.806;2022-10-16T05:54:23;12.30;99.90
19348;DHT22;9810;52.480;9.806;2022-10-16T05:56:50;12.30;99.90
19348;DHT22;9810;52.480;9.806;2022-10-16T05:59:17;12.30;99.90
19348;DHT22;9810;52.480;9.806;2022-10-16T06:01:45;12.30;99.90
19348;DHT22;9810;52.480;9.806;2022-10-16T06:04:12;12.30;99.90
19348;DHT22;9810;52.480;9.806;2022-10-16T06:06:39;12.40;99.90
19348;DHT22;9810;52.480;9.806;2022-10-16T06:09:09;12.40;99.90
19348;DHT22;9810;52.480;9.806;2022-10-16T06:11:36;12.40;99.90
19348;DHT22;9810;52.480;9.806;2022-10-16T06:14:04;12.50;99.90
19348;DHT22;9810;52.480;9.806;2022-10-16T06:16:32;12.40;99.90
19348;DHT22;9810;52.480;9.806;2022-10-16T06:19:00;12.50;99.90
19348;DHT22;9810;52.480;9.806;2022-10-16T06:21:28;12.60;99.90
19348;DHT22;9810;52.480;9.806;2022-10-16T06:23:56;12.60;99.90
19348;DHT22;9810;52.480;9.806;2022-10-16T06:26:26;12.60;99.90
19348;DHT22;9810;52.480;9.806;2022-10-16T06:28:54;12.70;99.90
19348;DHT22;9810;52.480;9.806;2022-10-16T06:31:22;12.70;99.90
19348;DHT22;9810;52.480;9.806;2022-10-16T06:33:53;12.90;99.90
19348;DHT22;9810;52.480;9.806;2022-10-16T06:36:21;13.00;99.90
19348;DHT22;9810;52.480;9.806;2022-10-16T06:38:48;13.10;99.90
19348;DHT22;9810;52.480;9.806;2022-10-16T06:41:17;13.20;99.90
19348;DHT22;9810;52.480;9.806;2022-10-16T06:43:47;13.30;99.90
19348;DHT22;9810;52.480;9.806;2022-10-16T06:46:15;13.40;99.90
19348;DHT22;9810;52.480;9.806;2022-10-16T06:48:43;13.50;99.90
19348;DHT22;9810;52.480;9.806;2022-10-16T06:51:12;13.60;99.90
19348;DHT22;9810;52.480;9.806;2022-10-16T06:53:41;13.70;99.90
19348;DHT22;9810;52.480;9.806;2022-10-16T06:56:09;13.80;99.90
19348;DHT22;9810;52.480;9.806;2022-10-16T06:58:37;14.00;99.90
19348;DHT22;9810;52.480;9.806;2022-10-16T07:01:06;14.30;99.90
19348;DHT22;9810;52.480;9.806;2022-10-16T07:03:35;14.60;99.90
19348;DHT22;9810;52.480;9.806;2022-10-16T07:06:03;14.80;99.90
19348;DHT22;9810;52.480;9.806;2022-10-16T07:08:31;15.40;99.90
19348;DHT22;9810;52.480;9.806;2022-10-16T07:11:00;15.70;99.90
19348;DHT22;9810;52.480;9.806;2022-10-16T07:13:27;15.90;99.90
19348;DHT22;9810;52.480;9.806;2022-10-16T07:15:55;16.60;99.90
19348;DHT22;9810;52.480;9.806;2022-10-16T07:18:23;17.40;99.90
19348;DHT22;9810;52.480;9.806;2022-10-16T07:20:52;17.40;99.90
19348;DHT22;9810;52.480;9.806;2022-10-16T07:23:20;17.50;99.90
19348;DHT22;9810;52.480;9.806;2022-10-16T07:25:53;17.70;99.90
19348;DHT22;9810;52.480;9.806;2022-10-16T07:28:21;17.70;99.90
19348;DHT22;9810;52.480;9.806;2022-10-16T07:30:48;18.10;99.90
19348;DHT22;9810;52.480;9.806;2022-10-16T07:33:15;18.80;99.90
19348;DHT22;9810;52.480;9.806;2022-10-16T07:35:52;19.50;99.90
19348;DHT22;9810;52.480;9.806;2022-10-16T07:38:20;19.90;99.90
19348;DHT22;9810;52.480;9.806;2022-10-16T07:40:55;19.90;99.90
19348;DHT22;9810;52.480;9.806;2022-10-16T07:43:22;20.40;99.90
19348;DHT22;9810;52.480;9.806;2022-10-16T07:45:49;21.30;99.90
19348;DHT22;9810;52.480;9.806;2022-10-16T07:48:17;22.00;99.90
19348;DHT22;9810;52.480;9.806;2022-10-16T07:50:45;22.50;99.90
19348;DHT22;9810;52.480;9.806;2022-10-16T07:53:14;22.50;99.90
19348;DHT22;9810;52.480;9.806;2022-10-16T07:55:42;22.40;99.90
19348;DHT22;9810;52.480;9.806;2022-10-16T07:58:10;22.00;99.90
19348;DHT22;9810;52.480;9.806;2022-10-16T08:00:37;21.80;99.90
19348;DHT22;9810;52.480;9.806;2022-10-16T08:03:04;21.40;99.90
19348;DHT22;9810;52.480;9.806;2022-10-16T08:05:33;21.60;99.90
19348;DHT22;9810;52.480;9.806;2022-10-16T08:08:00;21.90;99.90
19348;DHT22;9810;52.480;9.806;2022-10-16T08:10:29;22.70;99.90
19348;DHT22;9810;52.480;9.806;2022-10-16T08:12:57;22.30;99.90
19348;DHT22;9810;52.480;9.806;2022-10-16T08:15:24;22.30;99.90
19348;DHT22;9810;52.480;9.806;2022-10-16T08:17:56;21.70;99.90
19348;DHT22;9810;52.480;9.806;2022-10-16T08:20:23;21.80;99.90
19348;DHT22;9810;52.480;9.806;2022-10-16T08:22:50;21.60;99.90
19348;DHT22;9810;52.480;9.806;2022-10-16T08:25:18;21.10;99.90
19348;DHT22;9810;52.480;9.806;2022-10-16T08:27:46;20.40;99.90
19348;DHT22;9810;52.480;9.806;2022-10-16T08:30:14;20.20;99.90
19348;DHT22;9810;52.480;9.806;2022-10-16T08:32:41;20.10;99.90
19348;DHT22;9810;52.480;9.806;2022-10-16T08:35:09;20.00;99.90
19348;DHT22;9810;52.480;9.806;2022-10-16T08:37:37;20.60;99.90
19348;DHT22;9810;52.480;9.806;2022-10-16T08:40:12;21.40;99.90
19348;DHT22;9810;52.480;9.806;2022-10-16T08:45:52;23.10;99.90
19348;DHT22;9810;52.480;9.806;2022-10-16T08:48:29;23.00;99.90
19348;DHT22;9810;52.480;9.806;2022-10-16T08:50:57;23.20;99.90
19348;DHT22;9810;52.480;9.806;2022-10-16T08:53:28;23.40;99.90
19348;DHT22;9810;52.480;9.806;2022-10-16T08:55:57;23.00;99.90
19348;DHT22;9810;52.480;9.806;2022-10-16T08:58:29;22.90;99.90
19348;DHT22;9810;52.480;9.806;2022-10-16T09:00:59;23.70;99.90
19348;DHT22;9810;52.480;9.806;2022-10-16T09:03:38;23.70;99.90
19348;DHT22;9810;52.480;9.806;2022-10-16T09:06:35;24.00;99.90
19348;DHT22;9810;52.480;9.806;2022-10-16T09:09:32;24.00;99.90
19348;DHT22;9810;52.480;9.806;2022-10-16T09:12:07;24.20;99.90
19348;DHT22;9810;52.480;9.806;2022-10-16T09:14:50;23.90;99.90
19348;DHT22;9810;52.480;9.806;2022-10-16T09:17:28;24.30;99.90
19348;DHT22;9810;52.480;9.806;2022-10-16T09:20:07;24.80;99.90
19348;DHT22;9810;52.480;9.806;2022-10-16T09:22:39;25.00;99.90
19348;DHT22;9810;52.480;9.806;2022-10-16T09:25:12;24.40;99.90
19348;DHT22;9810;52.480;9.806;2022-10-16T09:27:40;23.70;99.90
19348;DHT22;9810;52.480;9.806;2022-10-16T09:30:14;24.00;99.90
19348;DHT22;9810;52.480;9.806;2022-10-16T09:32:42;24.50;99.90
19348;DHT22;9810;52.480;9.806;2022-10-16T09:35:14;24.40;99.90
19348;DHT22;9810;52.480;9.806;2022-10-16T09:37:43;24.30;99.90
19348;DHT22;9810;52.480;9.806;2022-10-16T09:40:13;25.00;99.90
19348;DHT22;9810;52.480;9.806;2022-10-16T09:42:40;25.20;99.90
19348;DHT22;9810;52.480;9.806;2022-10-16T09:45:21;26.40;99.90
19348;DHT22;9810;52.480;9.806;2022-10-16T09:47:50;25.80;99.90
19348;DHT22;9810;52.480;9.806;2022-10-16T09:50:23;25.20;99.90
19348;DHT22;9810;52.480;9.806;2022-10-16T09:53:03;25.10;99.90
19348;DHT22;9810;52.480;9.806;2022-10-16T09:55:31;25.20;99.90
19348;DHT22;9810;52.480;9.806;2022-10-16T09:57:58;26.00;99.90
19348;DHT22;9810;52.480;9.806;2022-10-16T10:00:27;25.50;99.90
19348;DHT22;9810;52.480;9.806;2022-10-16T10:02:55;24.60;99.90
19348;DHT22;9810;52.480;9.806;2022-10-16T10:05:25;23.40;99.90
19348;DHT22;9810;52.480;9.806;2022-10-16T10:07:57;23.20;99.90
19348;DHT22;9810;52.480;9.806;2022-10-16T10:10:27;23.30;99.90
19348;DHT22;9810;52.480;9.806;2022-10-16T10:12:55;23.60;99.90
19348;DHT22;9810;52.480;9.806;2022-10-16T10:15:23;24.00;99.90
19348;DHT22;9810;52.480;9.806;2022-10-16T10:17:55;24.40;99.90
19348;DHT22;9810;52.480;9.806;2022-10-16T10:20:26;23.60;99.90
19348;DHT22;9810;52.480;9.806;2022-10-16T10:22:54;23.80;99.90
19348;DHT22;9810;52.480;9.806;2022-10-16T10:25:36;24.60;99.90
19348;DHT22;9810;52.480;9.806;2022-10-16T10:28:18;25.40;99.90
19348;DHT22;9810;52.480;9.806;2022-10-16T10:30:56;24.30;99.90
19348;DHT22;9810;52.480;9.806;2022-10-16T10:33:34;23.50;99.90
19348;DHT22;9810;52.480;9.806;2022-10-16T10:36:22;22.20;99.90
19348;DHT22;9810;52.480;9.806;2022-10-16T10:38:56;21.60;99.90
19348;DHT22;9810;52.480;9.806;2022-10-16T10:41:52;21.40;99.90
19348;DHT22;9810;52.480;9.806;2022-10-16T10:44:31;21.70;99.90
19348;DHT22;9810;52.480;9.806;2022-10-16T10:47:09;21.20;99.90
19348;DHT22;9810;52.480;9.806;2022-10-16T10:49:49;20.50;99.90
19348;DHT22;9810;52.480;9.806;2022-10-16T10:52:35;19.90;99.90
19348;DHT22;9810;52.480;9.806;2022-10-16T10:55:14;19.60;99.90
19348;DHT22;9810;52.480;9.806;2022-10-16T10:57:54;20.10;99.90
19348;DHT22;9810;52.480;9.806;2022-10-16T11:00:30;21.20;99.90
19348;DHT22;9810;52.480;9.806;2022-10-16T11:03:08;22.50;99.90
19348;DHT22;9810;52.480;9.806;2022-10-16T11:05:43;22.80;99.90
19348;DHT22;9810;52.480;9.806;2022-10-16T11:08:16;23.30;99.90
19348;DHT22;9810;52.480;9.806;2022-10-16T11:10:51;23.60;99.90
19348;DHT22;9810;52.480;9.806;2022-10-16T11:13:32;23.90;99.90
19348;DHT22;9810;52.480;9.806;2022-10-16T11:16:03;23.80;99.90
19348;DHT22;9810;52.480;9.806;2022-10-16T11:18:44;23.40;99.90
19348;DHT22;9810;52.480;9.806;2022-10-16T11:21:16;23.40;99.90
19348;DHT22;9810;52.480;9.806;2022-10-16T11:23:49;22.90;99.90
19348;DHT22;9810;52.480;9.806;2022-10-16T11:26:21;22.50;99.90
19348;DHT22;9810;52.480;9.806;2022-10-16T11:28:51;22.40;99.90
19348;DHT22;9810;52.480;9.806;2022-10-16T11:31:26;21.70;99.90
19348;DHT22;9810;52.480;9.806;2022-10-16T11:34:01;21.40;99.90
19348;DHT22;9810;52.480;9.806;2022-10-16T11:36:38;21.00;99.90
19348;DHT22;9810;52.480;9.806;2022-10-16T11:39:16;20.50;99.90
19348;DHT22;9810;52.480;9.806;2022-10-16T11:41:48;20.50;99.90
19348;DHT22;9810;52.480;9.806;2022-10-16T11:44:24;20.60;99.90
19348;DHT22;9810;52.480;9.806;2022-10-16T11:47:05;20.40;99.90
19348;DHT22;9810;52.480;9.806;2022-10-16T11:49:36;20.80;99.90
19348;DHT22;9810;52.480;9.806;2022-10-16T11:52:13;20.70;99.90
19348;DHT22;9810;52.480;9.806;2022-10-16T11:54:47;20.60;99.90
19348;DHT22;9810;52.480;9.806;2022-10-16T11:57:19;20.50;99.90
19348;DHT22;9810;52.480;9.806;2022-10-16T11:59:50;20.30;99.90
19348;DHT22;9810;52.480;9.806;2022-10-16T12:02:33;20.30;99.90
19348;DHT22;9810;52.480;9.806;2022-10-16T12:05:19;20.30;99.90
19348;DHT22;9810;52.480;9.806;2022-10-16T12:07:54;20.30;99.90
19348;DHT22;9810;52.480;9.806;2022-10-16T12:10:27;20.20;99.90
19348;DHT22;9810;52.480;9.806;2022-10-16T12:12:54;20.10;99.90
19348;DHT22;9810;52.480;9.806;2022-10-16T12:15:25;20.00;99.90
19348;DHT22;9810;52.480;9.806;2022-10-16T12:17:53;20.00;99.90
19348;DHT22;9810;52.480;9.806;2022-10-16T12:20:27;20.10;99.90
19348;DHT22;9810;52.480;9.806;2022-10-16T12:22:59;20.20;99.90
19348;DHT22;9810;52.480;9.806;2022-10-16T12:25:30;20.20;99.90
19348;DHT22;9810;52.480;9.806;2022-10-16T12:28:00;20.30;99.90
19348;DHT22;9810;52.480;9.806;2022-10-16T12:30:30;20.50;99.90
19348;DHT22;9810;52.480;9.806;2022-10-16T12:32:59;20.70;99.90
19348;DHT22;9810;52.480;9.806;2022-10-16T12:35:29;20.80;99.90
19348;DHT22;9810;52.480;9.806;2022-10-16T12:38:07;20.90;99.90
19348;DHT22;9810;52.480;9.806;2022-10-16T12:40:37;20.40;99.90
19348;DHT22;9810;52.480;9.806;2022-10-16T12:43:12;20.10;99.90
19348;DHT22;9810;52.480;9.806;2022-10-16T12:45:40;19.80;99.90
19348;DHT22;9810;52.480;9.806;2022-10-16T12:48:19;19.70;99.90
19348;DHT22;9810;52.480;9.806;2022-10-16T12:50:47;19.80;99.90
19348;DHT22;9810;52.480;9.806;2022-10-16T12:53:21;19.80;99.90
19348;DHT22;9810;52.480;9.806;2022-10-16T12:55:55;19.90;99.90
19348;DHT22;9810;52.480;9.806;2022-10-16T12:58:49;19.90;99.90
19348;DHT22;9810;52.480;9.806;2022-10-16T13:01:28;20.00;99.90
19348;DHT22;9810;52.480;9.806;2022-10-16T13:04:11;20.00;99.90
19348;DHT22;9810;52.480;9.806;2022-10-16T13:06:47;19.90;99.90
19348;DHT22;9810;52.480;9.806;2022-10-16T13:09:33;19.80;99.90
19348;DHT22;9810;52.480;9.806;2022-10-16T13:12:19;19.80;99.90
19348;DHT22;9810;52.480;9.806;2022-10-16T13:15:06;19.50;99.90
19348;DHT22;9810;52.480;9.806;2022-10-16T13:17:42;19.40;99.90
19348;DHT22;9810;52.480;9.806;2022-10-16T13:20:18;19.20;99.90
19348;DHT22;9810;52.480;9.806;2022-10-16T13:22:54;19.30;99.90
19348;DHT22;9810;52.480;9.806;2022-10-16T13:25:32;19.20;99.90
19348;DHT22;9810;52.480;9.806;2022-10-16T13:28:04;19.10;99.90
19348;DHT22;9810;52.480;9.806;2022-10-16T13:30:35;19.00;99.90
19348;DHT22;9810;52.480;9.806;2022-10-16T13:33:11;19.00;99.90
19348;DHT22;9810;52.480;9.806;2022-10-16T13:35:48;19.30;99.90
19348;DHT22;9810;52.480;9.806;2022-10-16T13:38:17;19.40;99.90
19348;DHT22;9810;52.480;9.806;2022-10-16T13:40:51;19.40;99.90
19348;DHT22;9810;52.480;9.806;2022-10-16T13:43:20;19.30;99.90
19348;DHT22;9810;52.480;9.806;2022-10-16T13:46:00;19.50;99.90
19348;DHT22;9810;52.480;9.806;2022-10-16T13:48:29;19.60;99.90
19348;DHT22;9810;52.480;9.806;2022-10-16T13:51:00;19.70;99.90
19348;DHT22;9810;52.480;9.806;2022-10-16T13:53:30;19.80;99.90
19348;DHT22;9810;52.480;9.806;2022-10-16T13:56:02;19.60;99.90
19348;DHT22;9810;52.480;9.806;2022-10-16T13:58:29;19.50;99.90
19348;DHT22;9810;52.480;9.806;2022-10-16T14:00:58;19.50;99.90
19348;DHT22;9810;52.480;9.806;2022-10-16T14:03:27;19.70;99.90
19348;DHT22;9810;52.480;9.806;2022-10-16T14:05:57;19.80;99.90
19348;DHT22;9810;52.480;9.806;2022-10-16T14:08:26;19.80;99.90
19348;DHT22;9810;52.480;9.806;2022-10-16T14:10:56;19.80;99.90
19348;DHT22;9810;52.480;9.806;2022-10-16T14:13:30;19.70;99.90
19348;DHT22;9810;52.480;9.806;2022-10-16T14:15:59;19.60;99.90
19348;DHT22;9810;52.480;9.806;2022-10-16T14:18:28;19.50;99.90
19348;DHT22;9810;52.480;9.806;2022-10-16T14:21:03;19.50;99.90
19348;DHT22;9810;52.480;9.806;2022-10-16T14:23:33;19.30;99.90
19348;DHT22;9810;52.480;9.806;2022-10-16T14:26:16;19.40;99.90
19348;DHT22;9810;52.480;9.806;2022-10-16T14:28:46;19.40;99.90
19348;DHT22;9810;52.480;9.806;2022-10-16T14:31:28;19.40;99.90
19348;DHT22;9810;52.480;9.806;2022-10-16T14:33:56;19.40;99.90
19348;DHT22;9810;52.480;9.806;2022-10-16T14:36:24;19.40;99.90
19348;DHT22;9810;52.480;9.806;2022-10-16T14:39:03;19.40;99.90
19348;DHT22;9810;52.480;9.806;2022-10-16T14:41:31;19.30;99.90
19348;DHT22;9810;52.480;9.806;2022-10-16T14:44:03;19.20;99.90
19348;DHT22;9810;52.480;9.806;2022-10-16T14:46:33;19.20;99.90
19348;DHT22;9810;52.480;9.806;2022-10-16T14:49:05;19.30;99.90
19348;DHT22;9810;52.480;9.806;2022-10-16T14:51:39;19.30;99.90
19348;DHT22;9810;52.480;9.806;2022-10-16T14:54:08;19.20;99.90
19348;DHT22;9810;52.480;9.806;2022-10-16T14:56:43;19.10;99.90
19348;DHT22;9810;52.480;9.806;2022-10-16T14:59:16;19.10;99.90
19348;DHT22;9810;52.480;9.806;2022-10-16T15:01:43;19.00;99.90
19348;DHT22;9810;52.480;9.806;2022-10-16T15:04:12;18.90;99.90
19348;DHT22;9810;52.480;9.806;2022-10-16T15:06:39;18.80;99.90
19348;DHT22;9810;52.480;9.806;2022-10-16T15:09:06;18.80;99.90
19348;DHT22;9810;52.480;9.806;2022-10-16T15:11:34;18.70;99.90
19348;DHT22;9810;52.480;9.806;2022-10-16T15:14:01;18.70;99.90
19348;DHT22;9810;52.480;9.806;2022-10-16T15:16:31;18.60;99.90
19348;DHT22;9810;52.480;9.806;2022-10-16T15:18:58;18.50;99.90
19348;DHT22;9810;52.480;9.806;2022-10-16T15:21:28;18.50;99.90
19348;DHT22;9810;52.480;9.806;2022-10-16T15:23:56;18.50;99.90
19348;DHT22;9810;52.480;9.806;2022-10-16T15:26:23;18.40;99.90
19348;DHT22;9810;52.480;9.806;2022-10-16T15:28:51;18.30;99.90
19348;DHT22;9810;52.480;9.806;2022-10-16T15:31:19;18.30;99.90
19348;DHT22;9810;52.480;9.806;2022-10-16T15:33:49;18.30;99.90
19348;DHT22;9810;52.480;9.806;2022-10-16T15:36:25;18.20;99.90
19348;DHT22;9810;52.480;9.806;2022-10-16T15:38:52;18.20;99.90
19348;DHT22;9810;52.480;9.806;2022-10-16T15:41:20;18.10;99.90
19348;DHT22;9810;52.480;9.806;2022-10-16T15:43:48;18.00;99.90
19348;DHT22;9810;52.480;9.806;2022-10-16T15:46:18;17.90;99.90
19348;DHT22;9810;52.480;9.806;2022-10-16T15:48:50;17.80;99.90
19348;DHT22;9810;52.480;9.806;2022-10-16T15:51:18;17.70;99.90
19348;DHT22;9810;52.480;9.806;2022-10-16T15:53:45;17.30;99.90
19348;DHT22;9810;52.480;9.806;2022-10-16T15:56:13;17.40;99.90
19348;DHT22;9810;52.480;9.806;2022-10-16T15:58:41;17.40;99.90
19348;DHT22;9810;52.480;9.806;2022-10-16T16:01:09;17.20;99.90
19348;DHT22;9810;52.480;9.806;2022-10-16T16:03:37;16.90;99.90
19348;DHT22;9810;52.480;9.806;2022-10-16T16:06:09;16.50;99.90
19348;DHT22;9810;52.480;9.806;2022-10-16T16:08:36;16.00;99.90
19348;DHT22;9810;52.480;9.806;2022-10-16T16:11:05;15.70;99.90